Time;durP1;ratioP1;P1;durP2;ratioP2;P2;SDS_P1;SDS_P2;PMS_P1;PMS_P2;Temp;Humidity;BMP_temperature;BMP_pressure;BME280_temperature;BME280_humidity;BME280_pressure;Samples;Min_cycle;Max_cycle;Signal;HPM_P1;HPM_P2
2022/05/30 00:00:14;;;;;;;5.65;2.10;;;;;;;-148.88;99.29;76079.88;5022407;28;20021;-88
2022/05/30 00:02:40;;;;;;;9.93;2.70;;;;;;;-148.88;99.00;76081.91;5022018;28;20486;-90
2022/05/30 00:05:05;;;;;;;9.07;3.03;;;;;;;-148.88;99.64;76081.91;5041622;28;20029;-90
2022/05/30 00:07:30;;;;;;;7.95;2.60;;;;;;;-148.88;99.75;76075.81;5028852;28;20059;-89
2022/05/30 00:09:56;;;;;;;6.75;2.50;;;;;;;-148.88;100.00;76096.13;5021533;28;20113;-90
2022/05/30 00:12:21;;;;;;;8.45;3.15;;;;;;;-148.88;100.00;76090.03;5018778;28;20040;-90
2022/05/30 00:14:47;;;;;;;10.70;3.03;;;;;;;-148.88;100.00;76102.22;5037016;28;20025;-89
2022/05/30 00:17:12;;;;;;;7.57;3.00;;;;;;;-148.88;100.00;76090.03;5018222;28;20137;-89
2022/05/30 00:19:38;;;;;;;10.25;3.05;;;;;;;-148.88;100.00;76102.22;5018079;28;20030;-90
2022/05/30 00:22:11;;;;;;;10.95;3.03;;;;;;;-148.88;100.00;76092.06;5018092;28;20017;-88
2022/05/30 00:24:37;;;;;;;10.57;3.17;;;;;;;-148.88;100.00;76094.09;5036011;28;20036;-89
2022/05/30 00:27:05;;;;;;;11.52;3.25;;;;;;;-148.88;100.00;76094.09;5017742;28;20067;-89
2022/05/30 00:29:30;;;;;;;8.30;3.40;;;;;;;-148.88;100.00;76098.16;5018496;28;20023;-89
2022/05/30 00:31:56;;;;;;;11.23;3.40;;;;;;;-148.88;100.00;76096.13;5017702;28;20021;-89
2022/05/30 00:34:23;;;;;;;10.23;2.80;;;;;;;-148.88;100.00;76094.09;5018002;28;20023;-87
2022/05/30 00:36:48;;;;;;;8.90;3.90;;;;;;;-148.88;100.00;76094.09;5017536;28;20025;-89
2022/05/30 00:39:13;;;;;;;11.63;3.75;;;;;;;-148.88;100.00;76092.06;5036498;28;20031;-89
2022/05/30 00:41:39;;;;;;;10.80;3.65;;;;;;;-148.88;100.00;76102.22;5039383;28;20025;-90
2022/05/30 00:44:13;;;;;;;7.78;3.08;;;;;;;-148.88;100.00;76094.09;5019962;28;20467;-88
2022/05/30 00:46:39;;;;;;;7.60;3.17;;;;;;;-148.88;100.00;76085.97;5019835;28;20025;-89
2022/05/30 00:49:08;;;;;;;7.65;3.15;;;;;;;-148.88;100.00;76094.09;5036631;28;20105;-87
2022/05/30 00:51:41;;;;;;;6.82;3.00;;;;;;;-148.88;100.00;76094.09;5018377;28;20483;-89
2022/05/30 00:54:10;;;;;;;9.25;3.40;;;;;;;-148.88;100.00;76102.22;5035820;28;20033;-88
2022/05/30 00:56:47;;;;;;;11.32;3.53;;;;;;;-148.88;100.00;76098.16;5017448;28;20021;-91
2022/05/30 00:59:12;;;;;;;10.73;3.45;;;;;;;-148.88;100.00;76098.16;5035298;28;20041;-91
2022/05/30 01:01:38;;;;;;;10.50;2.90;;;;;;;-148.88;100.00;76110.34;5017563;28;20029;-91
2022/05/30 01:06:55;;;;;;;9.80;3.50;;;;;;;-148.88;100.00;76116.44;5035150;28;20032;-91
2022/05/30 01:09:30;;;;;;;7.78;2.97;;;;;;;-148.88;100.00;76128.66;5017359;28;20021;-92
2022/05/30 01:12:09;;;;;;;12.68;3.35;;;;;;;-148.88;100.00;76120.53;5017277;28;20112;-90
2022/05/30 01:14:38;;;;;;;6.93;3.13;;;;;;;-148.88;100.00;76130.69;5016622;28;20470;-91
2022/05/30 01:17:09;;;;;;;8.27;3.25;;;;;;;-148.88;100.00;76130.69;5016824;28;20032;-91
2022/05/30 01:19:43;;;;;;;10.07;3.38;;;;;;;-148.88;100.00;76142.88;5034446;28;20105;-91
2022/05/30 01:22:24;;;;;;;10.00;3.35;;;;;;;-148.88;100.00;76142.88;5034770;28;20028;-91
2022/05/30 01:25:04;;;;;;;9.82;3.13;;;;;;;-148.88;100.00;76144.91;5034689;28;20029;-91
2022/05/30 01:27:41;;;;;;;9.93;3.65;;;;;;;-148.88;100.00;76161.16;5017046;28;20029;-91
2022/05/30 01:30:11;;;;;;;9.63;3.90;;;;;;;-148.88;100.00;76159.13;5016823;28;20470;-90
2022/05/30 01:32:37;;;;;;;6.95;2.80;;;;;;;-148.88;100.00;76159.13;5016443;28;20044;-90
2022/05/30 01:35:03;;;;;;;11.95;3.60;;;;;;;-148.88;100.00;76159.13;5016342;28;20111;-91
2022/05/30 01:37:28;;;;;;;9.27;3.63;;;;;;;-148.88;100.00;76167.25;5016786;28;20172;-90
2022/05/30 01:39:53;;;;;;;7.15;3.60;;;;;;;-148.88;100.00;76167.25;5016349;28;20115;-90
2022/05/30 01:42:19;;;;;;;8.93;2.90;;;;;;;-148.88;100.00;76171.31;5034305;28;20021;-90
2022/05/30 01:44:44;;;;;;;12.52;3.17;;;;;;;-148.88;100.00;76169.28;5034199;28;20037;-90
2022/05/30 01:47:10;;;;;;;8.80;3.00;;;;;;;-148.88;100.00;76167.25;5034340;28;20040;-90
2022/05/30 01:49:35;;;;;;;14.10;3.63;;;;;;;-148.88;100.00;76157.09;5034220;28;20024;-91
2022/05/30 01:52:01;;;;;;;9.93;3.33;;;;;;;-148.88;100.00;76163.19;5016216;28;20567;-91
2022/05/30 01:54:27;;;;;;;8.00;3.60;;;;;;;-148.88;100.00;76163.19;5015907;28;20038;-90
2022/05/30 01:56:52;;;;;;;6.20;3.10;;;;;;;-148.88;100.00;76167.25;5016067;28;20033;-91
2022/05/30 01:59:18;;;;;;;8.10;3.50;;;;;;;-148.88;100.00;76173.34;5016329;28;20033;-89
2022/05/30 02:01:45;;;;;;;10.32;4.20;;;;;;;-148.88;100.00;76171.31;5016078;28;20043;-90
2022/05/30 02:04:12;;;;;;;10.95;3.35;;;;;;;-148.88;100.00;76169.28;5035161;28;20043;-91
2022/05/30 02:06:37;;;;;;;9.55;3.78;;;;;;;-148.88;100.00;76163.19;5034112;28;20045;-90
2022/05/30 02:09:10;;;;;;;7.88;3.60;;;;;;;-148.88;100.00;76167.25;5033909;28;20104;-90
2022/05/30 02:11:36;;;;;;;9.43;3.05;;;;;;;-148.88;100.00;76155.06;5016386;28;20049;-90
2022/05/30 02:14:03;;;;;;;8.77;3.83;;;;;;;-148.88;100.00;76167.25;5033527;28;20101;-90
2022/05/30 02:19:15;;;;;;;9.30;3.38;;;;;;;-148.88;100.00;76173.34;5035504;28;20031;-92
2022/05/30 02:21:40;;;;;;;13.13;3.53;;;;;;;-148.88;100.00;76179.44;5033490;28;20053;-92
2022/05/30 02:24:06;;;;;;;12.13;4.28;;;;;;;-148.88;100.00;76183.50;5035838;28;20034;-91
2022/05/30 02:26:34;;;;;;;10.00;4.20;;;;;;;-148.88;100.00;76187.56;5033573;28;20063;-91
2022/05/30 02:29:00;;;;;;;7.50;3.55;;;;;;;-148.88;100.00;76195.69;5016270;28;20053;-93
2022/05/30 02:31:25;;;;;;;9.75;3.78;;;;;;;-148.88;100.00;76213.97;5033641;28;20057;-92
2022/05/30 02:36:52;;;;;;;8.57;3.30;;;;;;;-148.88;100.00;76216.00;4972799;28;20030;-91
2022/05/30 02:39:20;;;;;;;10.32;3.70;;;;;;;-148.88;100.00;76209.91;5003427;28;20143;-91
2022/05/30 02:41:47;;;;;;;8.57;4.18;;;;;;;-148.88;100.00;76216.00;5015419;28;20108;-91
2022/05/30 02:44:14;;;;;;;8.82;3.30;;;;;;;-148.88;100.00;76213.97;5015488;28;20029;-91
2022/05/30 02:46:40;;;;;;;6.28;3.60;;;;;;;-148.88;100.00;76211.94;5033316;28;20025;-92
2022/05/30 02:49:05;;;;;;;10.88;3.47;;;;;;;-148.88;100.00;76216.00;5015401;28;20071;-90
2022/05/30 02:51:31;;;;;;;10.75;3.70;;;;;;;-148.88;100.00;76220.06;5033608;28;20034;-88
2022/05/30 02:53:57;;;;;;;9.70;3.53;;;;;;;-148.88;100.00;76209.91;5033186;28;20562;-92
2022/05/30 02:56:22;;;;;;;11.50;4.40;;;;;;;-148.88;100.00;76216.00;5033126;28;20104;-91
2022/05/30 02:58:48;;;;;;;17.40;4.88;;;;;;;-148.88;100.00;76216.00;5033783;28;20029;-90
2022/05/30 03:01:14;;;;;;;11.25;4.53;;;;;;;-148.88;100.00;76207.88;5033380;28;20095;-92
2022/05/30 03:03:40;;;;;;;12.13;4.00;;;;;;;-148.88;100.00;76211.94;5033737;28;20109;-87
2022/05/30 03:06:05;;;;;;;10.38;4.35;;;;;;;-148.88;100.00;76209.91;5037112;28;20021;-88
2022/05/30 03:08:31;;;;;;;10.38;5.00;;;;;;;-148.88;100.00;76216.00;5039612;28;20032;-90
2022/05/30 03:10:57;;;;;;;14.77;4.53;;;;;;;-148.88;100.00;76205.84;5039105;28;20091;-89
2022/05/30 03:13:22;;;;;;;11.07;5.05;;;;;;;-148.88;100.00;76203.81;5038743;28;20018;-89
2022/05/30 03:15:48;;;;;;;8.48;4.38;;;;;;;-148.88;100.00;76191.63;5038337;28;20029;-89
2022/05/30 03:18:13;;;;;;;13.27;5.35;;;;;;;-148.88;100.00;76191.63;5019558;28;20159;-91
2022/05/30 03:20:39;;;;;;;7.10;4.10;;;;;;;-148.88;100.00;76191.63;5037713;28;20025;-89
2022/05/30 03:23:05;;;;;;;14.88;5.20;;;;;;;-148.88;100.00;76195.69;5019729;28;20032;-90
2022/05/30 03:25:30;;;;;;;15.07;4.63;;;;;;;-148.88;100.00;76191.63;5021370;28;20108;-92
2022/05/30 03:27:56;;;;;;;12.32;4.65;;;;;;;-148.88;100.00;76187.56;5040956;28;20418;-89
2022/05/30 03:30:22;;;;;;;12.10;4.22;;;;;;;-148.88;100.00;76187.56;5038125;28;20021;-91
2022/05/30 03:32:47;;;;;;;13.35;5.35;;;;;;;-148.88;100.00;76181.47;5037877;28;20024;-90
2022/05/30 03:35:13;;;;;;;11.30;5.03;;;;;;;-148.88;100.00;76187.56;5019575;28;20112;-90
2022/05/30 03:37:40;;;;;;;13.05;4.95;;;;;;;-148.88;100.00;76189.59;5023016;28;20064;-90
2022/05/30 03:40:07;;;;;;;9.48;4.90;;;;;;;-148.88;100.00;76189.59;5022417;28;20033;-92
2022/05/30 03:42:33;;;;;;;10.23;4.57;;;;;;;-148.88;100.00;76191.63;5038080;28;20471;-90
2022/05/30 03:44:58;;;;;;;13.90;4.97;;;;;;;-148.88;100.00;76183.50;5022964;28;20025;-89
2022/05/30 03:47:23;;;;;;;13.35;4.28;;;;;;;-148.88;100.00;76183.50;5036983;28;20493;-90
2022/05/30 03:49:49;;;;;;;10.85;5.20;;;;;;;-148.88;100.00;76183.50;5019279;28;20025;-90
2022/05/30 03:52:14;;;;;;;10.05;5.10;;;;;;;-148.88;100.00;76189.59;5018918;28;20025;-90
2022/05/30 03:54:40;;;;;;;12.38;5.15;;;;;;;-148.88;100.00;76195.69;5036405;28;20021;-90
2022/05/30 03:57:08;;;;;;;11.82;5.38;;;;;;;-148.88;100.00;76193.66;5036624;28;20029;-91
2022/05/30 03:59:34;;;;;;;9.48;4.40;;;;;;;-148.88;100.00;76191.63;5018781;28;20029;-91
2022/05/30 04:01:59;;;;;;;8.98;4.57;;;;;;;-148.88;100.00;76183.50;5018524;28;20025;-90
2022/05/30 04:04:24;;;;;;;15.60;4.80;;;;;;;-148.88;100.00;76191.63;5018509;28;20532;-91
2022/05/30 04:06:50;;;;;;;14.13;5.50;;;;;;;-148.88;100.00;76187.56;5018550;28;20474;-90
2022/05/30 04:09:15;;;;;;;10.63;4.70;;;;;;;-148.88;100.00;76179.44;5036548;28;20037;-91
2022/05/30 04:11:40;;;;;;;15.35;5.60;;;;;;;-148.88;100.00;76177.41;5021765;28;20033;-90
2022/05/30 04:14:06;;;;;;;14.43;5.38;;;;;;;-148.88;100.00;76179.44;5040128;28;20048;-91
2022/05/30 04:16:31;;;;;;;10.38;4.97;;;;;;;-148.88;100.00;76169.28;5037665;28;20532;-89
2022/05/30 04:18:56;;;;;;;10.52;4.38;;;;;;;-148.88;100.00;76163.19;5038677;28;20455;-87
2022/05/30 04:21:22;;;;;;;13.90;5.40;;;;;;;-148.88;100.00;76163.19;5017891;28;20025;-89
2022/05/30 04:23:54;;;;;;;12.75;4.95;;;;;;;-148.88;100.00;76159.13;5018167;28;20057;-89
2022/05/30 04:26:19;;;;;;;12.15;4.95;;;;;;;-148.88;100.00;76155.06;5018979;28;20466;-89
2022/05/30 04:28:44;;;;;;;12.15;4.82;;;;;;;-148.88;100.00;76155.06;5018081;28;20053;-88
2022/05/30 04:31:12;;;;;;;10.18;4.60;;;;;;;-148.88;100.00;76151.00;5017734;28;20398;-89
2022/05/30 04:33:40;;;;;;;11.60;4.95;;;;;;;-148.88;100.00;76155.06;5018153;28;20371;-88
2022/05/30 04:36:11;;;;;;;13.18;5.18;;;;;;;-148.88;100.00;76146.94;5018144;28;20372;-88
2022/05/30 04:38:37;;;;;;;11.32;5.57;;;;;;;-148.88;100.00;76146.94;5035451;28;20025;-88
2022/05/30 04:41:03;;;;;;;10.15;5.32;;;;;;;-148.88;100.00;76146.94;5035386;28;20052;-88
2022/05/30 04:43:29;;;;;;;14.15;5.13;;;;;;;-148.88;100.00;76142.88;5035464;28;20029;-91
2022/05/30 04:46:11;;;;;;;12.82;4.90;;;;;;;-148.88;100.00;76144.91;5017486;28;20128;-88
2022/05/30 04:48:37;;;;;;;10.27;4.75;;;;;;;-148.88;100.00;76153.03;5036824;28;20026;-90
2022/05/30 04:51:03;;;;;;;18.50;5.53;;;;;;;-148.88;100.00;76151.00;5017748;28;20060;-88
2022/05/30 04:53:28;;;;;;;10.40;4.55;;;;;;;-148.88;100.00;76140.84;5035060;28;20036;-88
2022/05/30 04:55:54;;;;;;;13.60;5.05;;;;;;;-148.88;100.00;76130.69;5035191;28;20022;-88
2022/05/30 04:58:19;;;;;;;13.85;5.80;;;;;;;-148.88;100.00;76136.78;5035252;28;20025;-89
2022/05/30 05:00:45;;;;;;;12.05;4.53;;;;;;;-148.88;100.00;76136.78;5036316;28;20055;-87
2022/05/30 05:03:10;;;;;;;16.35;4.80;;;;;;;-148.88;100.00;76122.56;5037609;28;20029;-91
2022/05/30 05:05:36;;;;;;;14.75;4.88;;;;;;;-148.88;100.00;76120.53;5035547;28;20052;-91
2022/05/30 05:08:16;;;;;;;15.27;5.07;;;;;;;-148.88;100.00;76114.41;5035763;28;20033;-88
2022/05/30 05:10:56;;;;;;;12.15;4.80;;;;;;;-148.88;100.00;76110.34;5017326;28;20052;-86
2022/05/30 05:13:25;;;;;;;12.15;4.97;;;;;;;-148.88;100.00;76102.22;5019647;28;20066;-86
2022/05/30 05:15:55;;;;;;;12.82;4.60;;;;;;;-148.88;100.00;76088.00;5018506;28;20026;-85
2022/05/30 05:18:21;;;;;;;15.20;4.72;;;;;;;-148.88;100.00;76088.00;5019330;28;20025;-86
2022/05/30 05:20:47;;;;;;;15.48;5.13;;;;;;;-148.88;100.00;76088.00;5037008;28;20105;-86
2022/05/30 05:23:12;;;;;;;15.23;4.45;;;;;;;-148.88;100.00;76081.91;5020027;28;20025;-86
2022/05/30 05:25:39;;;;;;;14.93;4.80;;;;;;;-148.88;100.00;76081.91;5036250;28;20033;-86
2022/05/30 05:28:05;;;;;;;7.53;4.28;;;;;;;-148.88;100.00;76081.91;5017463;28;20021;-85
2022/05/30 05:30:32;;;;;;;15.20;5.30;;;;;;;-148.88;100.00;76073.78;5036320;28;20018;-86
2022/05/30 05:32:57;;;;;;;12.63;4.43;;;;;;;-148.88;100.00;76073.78;5018202;28;20474;-86
2022/05/30 05:35:23;;;;;;;10.10;4.22;;;;;;;-148.88;100.00;76065.66;5035763;28;20035;-86
2022/05/30 05:37:48;;;;;;;9.45;3.95;;;;;;;-148.88;100.00;76059.56;5018032;28;20353;-85
2022/05/30 05:40:13;;;;;;;8.50;4.03;;;;;;;-148.88;100.00;76055.50;5018259;28;20018;-85
2022/05/30 05:42:39;;;;;;;11.85;4.38;;;;;;;-148.88;100.00;76049.41;5017624;28;20025;-86
2022/05/30 05:45:07;;;;;;;9.95;4.03;;;;;;;-148.88;100.00;76057.53;5018363;28;20119;-86
2022/05/30 05:47:34;;;;;;;11.50;4.30;;;;;;;-148.88;100.00;76043.31;5035874;28;20028;-85
2022/05/30 05:50:00;;;;;;;10.85;4.10;;;;;;;-148.88;100.00;76037.22;5034947;28;20044;-86
2022/05/30 05:52:28;;;;;;;15.38;4.43;;;;;;;-148.88;100.00;76014.88;5035263;28;20401;-86
2022/05/30 05:54:57;;;;;;;12.40;4.57;;;;;;;-148.88;99.42;76016.91;5035184;28;20076;-85
2022/05/30 05:57:25;;;;;;;10.43;4.10;;;;;;;-148.88;98.24;76033.16;5017608;28;20018;-85
2022/05/30 05:59:50;;;;;;;12.45;4.55;;;;;;;-148.88;98.41;76016.91;5018341;28;20031;-85
2022/05/30 06:02:16;;;;;;;10.50;4.20;;;;;;;-148.88;99.05;76008.78;5034957;28;20026;-86
2022/05/30 06:04:41;;;;;;;13.82;3.90;;;;;;;-148.88;96.74;76027.06;5016416;28;20032;-84
2022/05/30 06:07:07;;;;;;;12.15;3.65;;;;;;;-148.88;96.37;76004.72;5016455;28;20042;-86
2022/05/30 06:09:35;;;;;;;12.52;4.35;;;;;;;-148.88;97.11;75986.44;5035976;28;20048;-85
2022/05/30 06:12:09;;;;;;;15.63;4.32;;;;;;;-148.88;96.69;75982.38;5017588;28;20056;-85
2022/05/30 06:14:37;;;;;;;;;;;;;;;-148.88;95.78;75978.31;5035625;28;20029;-85
2022/05/30 06:17:11;;;;;;;6.57;3.67;;;;;;;-148.88;95.22;75968.16;5017917;28;19916;-85
2022/05/30 06:19:36;;;;;;;11.02;2.65;;;;;;;-148.88;93.21;75958.00;5018801;28;20029;-85
2022/05/30 06:22:01;;;;;;;11.20;3.17;;;;;;;-148.88;91.74;75960.03;5017872;28;20041;-86
2022/05/30 06:24:27;;;;;;;11.35;3.35;;;;;;;-148.88;93.53;75927.53;5018188;28;20056;-86
2022/05/30 06:26:55;;;;;;;10.52;3.78;;;;;;;-148.88;90.93;75939.72;5017998;28;20025;-84
2022/05/30 06:29:20;;;;;;;15.30;3.30;;;;;;;-148.88;90.99;75925.50;5018854;28;20536;-86
2022/05/30 06:31:46;;;;;;;14.20;3.83;;;;;;;-148.88;90.74;75925.50;5018022;28;20025;-85
2022/05/30 06:34:11;;;;;;;8.70;3.65;;;;;;;-148.88;90.02;75929.56;5017894;28;20026;-85
2022/05/30 06:36:40;;;;;;;8.32;3.28;;;;;;;-148.88;89.31;75913.31;5018161;28;20026;-85
2022/05/30 06:39:05;;;;;;;7.65;2.97;;;;;;;-148.88;90.31;75897.06;5035218;28;20028;-83
2022/05/30 06:41:32;;;;;;;8.40;3.10;;;;;;;-148.88;90.14;75899.09;5019744;28;20026;-84
2022/05/30 06:44:06;;;;;;;9.75;2.75;;;;;;;-148.88;88.26;75903.16;5019944;28;20047;-84
2022/05/30 06:46:34;;;;;;;10.07;3.30;;;;;;;-148.88;87.56;75890.97;5021587;28;20026;-86
2022/05/30 06:49:03;;;;;;;7.60;2.67;;;;;;;-148.88;86.72;75886.91;5022424;28;20449;-86
2022/05/30 06:51:29;;;;;;;6.03;2.40;;;;;;;-148.88;85.39;75870.66;5023257;28;20029;-85
2022/05/30 06:53:55;;;;;;;11.90;3.10;;;;;;;-148.88;87.44;75868.63;5023626;28;20037;-85
2022/05/30 06:56:23;;;;;;;9.38;3.00;;;;;;;-148.88;85.14;75886.91;5022997;28;20029;-85
2022/05/30 06:58:50;;;;;;;10.50;3.28;;;;;;;-148.88;84.88;75880.81;5039185;28;20489;-85
2022/05/30 07:01:17;;;;;;;10.00;3.08;;;;;;;-148.88;85.19;75858.47;5020608;28;20025;-87
2022/05/30 07:03:45;;;;;;;12.00;3.00;;;;;;;-148.88;84.75;75842.22;5037672;28;20032;-86
2022/05/30 07:06:13;;;;;;;9.88;2.67;;;;;;;-148.88;83.32;75854.41;5023021;28;20025;-85
2022/05/30 07:08:39;;;;;;;9.10;3.50;;;;;;;-148.88;86.09;75858.47;5036472;28;20021;-85
2022/05/30 07:11:06;;;;;;;9.18;3.90;;;;;;;-148.88;85.93;75848.31;5018219;28;20024;-84
2022/05/30 07:13:32;;;;;;;11.32;2.80;;;;;;;-148.88;80.21;75858.47;5019967;28;20462;-85
2022/05/30 07:15:58;;;;;;;5.55;2.03;;;;;;;-148.88;79.29;75862.53;5018930;28;20032;-84
2022/05/30 07:18:23;;;;;;;8.85;2.25;;;;;;;-148.88;80.46;75842.22;5019130;28;20028;-85
2022/05/30 07:20:58;;;;;;;8.20;2.88;;;;;;;-148.88;81.10;75830.03;5037172;28;20025;-84
2022/05/30 07:23:24;;;;;;;7.97;2.33;;;;;;;-148.88;79.69;75836.13;5021957;28;20116;-86
2022/05/30 07:25:49;;;;;;;6.95;1.92;;;;;;;-148.88;78.64;75838.16;5020521;28;20075;-86
2022/05/30 07:28:15;;;;;;;7.25;1.98;;;;;;;-148.88;78.33;75862.53;5037953;28;20064;-86
2022/05/30 07:30:41;;;;;;;5.28;2.40;;;;;;;-148.88;78.84;75852.38;5020961;28;20112;-85
2022/05/30 07:33:07;;;;;;;7.00;2.40;;;;;;;-148.88;80.85;75850.34;5038608;28;20021;-86
2022/05/30 07:35:33;;;;;;;9.35;2.10;;;;;;;-148.88;79.53;75866.59;5045887;28;20074;-85
2022/05/30 07:37:58;;;;;;;9.43;2.60;;;;;;;-148.88;78.17;75866.59;5056708;28;20033;-84
2022/05/30 07:40:23;;;;;;;7.25;1.80;;;;;;;-148.88;77.14;75850.34;5019647;28;20030;-87
2022/05/30 07:42:49;;;;;;;6.82;1.70;;;;;;;-148.88;76.44;75850.34;5037931;28;20034;-86
2022/05/30 07:45:14;;;;;;;6.47;2.13;;;;;;;-148.88;74.63;75832.06;5027333;28;20021;-86
2022/05/30 07:47:39;;;;;;;7.40;1.98;;;;;;;-148.88;77.28;75832.06;5058786;28;20051;-83
2022/05/30 07:50:06;;;;;;;6.57;1.90;;;;;;;-148.88;76.21;75850.34;5040026;28;20115;-86
2022/05/30 07:52:32;;;;;;;6.35;2.00;;;;;;;-148.88;78.46;75817.84;5039136;28;20032;-85
2022/05/30 07:54:58;;;;;;;7.47;1.73;;;;;;;-148.88;75.28;75813.78;5042679;28;20066;-85
2022/05/30 08:00:09;;;;;;;5.60;1.30;;;;;;;-148.88;73.39;75825.97;5058422;28;20433;-86
2022/05/30 08:02:34;;;;;;;6.05;1.40;;;;;;;-148.88;72.13;75830.03;5041165;28;20560;-82
2022/05/30 08:04:59;;;;;;;8.65;2.13;;;;;;;-148.88;73.79;75807.69;5059528;28;20037;-85
2022/05/30 08:07:25;;;;;;;3.78;1.60;;;;;;;-148.88;72.08;75828.00;5039957;28;20108;-84
2022/05/30 08:09:50;;;;;;;5.68;0.98;;;;;;;-148.88;70.11;75809.72;5060593;28;20051;-85
2022/05/30 08:12:15;;;;;;;7.55;1.52;;;;;;;-148.88;69.76;75815.81;5061042;28;20052;-85
2022/05/30 08:14:41;;;;;;;3.83;1.08;;;;;;;-148.88;67.25;75795.50;5059805;28;20144;-85
2022/05/30 08:17:07;;;;;;;7.15;1.65;;;;;;;-148.88;69.12;75781.28;5055439;28;20028;-84
2022/05/30 08:19:33;;;;;;;2.88;1.20;;;;;;;-148.88;70.67;75777.22;5055832;28;20048;-84
2022/05/30 08:22:07;;;;;;;5.03;1.10;;;;;;;-148.88;68.21;75769.09;5056109;28;20390;-85
2022/05/30 08:24:39;;;;;;;;;;;;;;;-148.88;67.73;75748.78;5056489;28;20021;-83
2022/05/30 08:27:05;;;;;;;5.47;1.40;;;;;;;-148.88;67.19;75744.72;5059374;28;20281;-85
2022/05/30 08:29:31;;;;;;;3.28;1.10;;;;;;;-148.88;66.16;75763.00;5059220;28;20032;-85
2022/05/30 08:31:56;;;;;;;5.30;1.40;;;;;;;-148.88;68.41;75732.53;5041042;28;20021;-85
2022/05/30 08:34:22;;;;;;;4.57;1.00;;;;;;;-148.88;66.39;75746.75;5041115;28;20029;-86
2022/05/30 08:36:47;;;;;;;8.45;1.40;;;;;;;-148.88;67.84;75724.41;5060286;28;20028;-85
2022/05/30 08:42:00;;;;;;;3.00;1.27;;;;;;;-148.88;65.76;75708.16;5061990;28;20032;-85
2022/05/30 08:44:29;;;;;;;5.35;1.30;;;;;;;-148.88;64.41;75704.09;5061644;28;20032;-85
2022/05/30 08:47:35;;;;;;;3.95;1.50;;;;;;;-148.88;64.31;75710.19;5061453;28;20028;-85
2022/05/30 08:50:22;;;;;;;4.95;1.20;;;;;;;-148.88;64.77;75683.78;5042760;28;20470;-86
2022/05/30 08:53:20;;;;;;;4.88;1.38;;;;;;;-148.88;65.38;75655.34;5038665;28;20036;-85
2022/05/30 08:56:00;;;;;;;2.45;1.15;;;;;;;-148.88;63.20;75665.50;5055347;28;20436;-83
2022/05/30 08:58:49;;;;;;;7.93;1.80;;;;;;;-148.88;65.69;75659.41;5055210;28;20024;-85
2022/05/30 09:01:24;;;;;;;4.72;1.40;;;;;;;-148.88;66.00;75653.31;5038124;28;20017;-85
2022/05/30 09:04:10;;;;;;;6.53;1.20;;;;;;;-148.88;66.35;75647.22;5062179;28;20382;-86
2022/05/30 09:06:45;;;;;;;4.60;1.50;;;;;;;-148.88;63.92;75647.22;5061933;28;20078;-84
2022/05/30 09:09:28;;;;;;;5.82;1.20;;;;;;;-148.88;63.57;75639.09;5029037;28;20018;-85
2022/05/30 09:12:05;;;;;;;4.40;1.08;;;;;;;-148.88;61.45;75630.97;5042030;28;20057;-85
2022/05/30 09:14:36;;;;;;;3.05;1.30;;;;;;;-148.88;61.19;75608.63;5043063;28;20029;-84
2022/05/30 09:17:05;;;;;;;2.88;1.15;;;;;;;-148.88;61.47;75596.44;5039985;28;20105;-85
2022/05/30 09:19:31;;;;;;;4.68;1.13;;;;;;;-148.88;64.32;75598.47;5042369;28;20034;-84
2022/05/30 09:22:02;;;;;;;4.53;1.40;;;;;;;-148.88;62.94;75606.59;5040091;28;20059;-85
2022/05/30 09:24:33;;;;;;;7.15;1.38;;;;;;;-148.88;61.77;75600.50;5040992;28;20036;-85
2022/05/30 09:27:02;;;;;;;3.30;1.10;;;;;;;-148.88;62.72;75610.66;5024309;28;20022;-84
2022/05/30 09:29:49;;;;;;;5.30;1.30;;;;;;;-148.88;61.97;75635.03;5034998;28;20429;-84
2022/05/30 09:32:24;;;;;;;4.82;1.20;;;;;;;-148.88;62.91;75651.28;5035545;28;20446;-84
2022/05/30 09:34:52;;;;;;;4.88;0.98;;;;;;;-148.88;64.18;75691.91;5018554;28;20032;-84
2022/05/30 09:37:32;;;;;;;4.25;1.20;;;;;;;-148.88;60.55;75677.69;5018360;28;20025;-84
2022/05/30 09:39:57;;;;;;;3.22;0.77;;;;;;;-148.88;61.13;75663.47;5022771;28;20049;-84
2022/05/30 09:42:30;;;;;;;4.13;0.90;;;;;;;-148.88;61.58;75677.69;5021905;28;20022;-85
2022/05/30 09:45:13;;;;;;;2.80;0.70;;;;;;;-148.88;60.86;75689.88;5038518;28;20021;-85
2022/05/30 09:48:01;;;;;;;3.95;0.90;;;;;;;-148.88;60.61;75693.94;5024782;28;20018;-82
2022/05/30 09:50:27;;;;;;;2.72;0.80;;;;;;;-148.88;60.27;75661.44;5042951;28;20041;-85
2022/05/30 09:52:52;;;;;;;4.70;1.40;;;;;;;-148.88;62.24;75704.09;5042598;28;20018;-85
2022/05/30 09:55:48;;;;;;;8.60;1.75;;;;;;;-148.88;61.79;75712.22;5041315;28;20031;-85
2022/05/30 09:58:14;;;;;;;3.75;0.90;;;;;;;-148.88;59.78;75736.59;5015734;28;20033;-85
2022/05/30 10:00:55;;;;;;;2.78;0.80;;;;;;;-148.88;62.32;75700.03;5041878;28;20040;-84
2022/05/30 10:03:34;;;;;;;4.20;1.15;;;;;;;-148.88;63.60;75685.81;5023496;28;20475;-84
2022/05/30 10:06:18;;;;;;;5.65;1.10;;;;;;;-148.88;63.20;75691.91;5037053;28;20026;-84
2022/05/30 10:08:50;;;;;;;3.03;1.00;;;;;;;-148.88;64.02;75698.00;5038651;28;20036;-83
2022/05/30 10:11:32;;;;;;;4.07;1.10;;;;;;;-148.88;64.38;75698.00;5039154;28;20088;-84
2022/05/30 10:13:57;;;;;;;3.22;1.10;;;;;;;-148.88;65.46;75714.25;5038310;28;20356;-84
2022/05/30 10:16:33;;;;;;;4.22;0.95;;;;;;;-148.88;66.08;75712.22;5040142;28;20052;-85
2022/05/30 10:19:04;;;;;;;6.05;1.10;;;;;;;-148.88;65.68;75724.41;5043516;28;20071;-84
2022/05/30 10:30:49;;;;;;;3.83;1.05;;;;;;;-148.88;61.90;75734.56;5041936;28;20178;-85
2022/05/30 10:33:54;;;;;;;2.38;0.60;;;;;;;-148.88;58.27;75716.28;5041886;28;20030;-84
2022/05/30 10:36:34;;;;;;;3.05;0.75;;;;;;;-148.88;57.06;75710.19;5015753;28;20553;-85
2022/05/30 10:39:34;;;;;;;1.98;0.63;;;;;;;-148.88;57.76;75700.03;5021650;28;20032;-84
2022/05/30 10:42:10;;;;;;;2.67;0.85;;;;;;;-148.88;58.52;75689.88;5015559;28;20029;-84
2022/05/30 10:44:43;;;;;;;2.20;1.00;;;;;;;-148.88;58.33;75689.88;5033789;28;20022;-84
2022/05/30 10:47:18;;;;;;;3.00;0.95;;;;;;;-148.88;59.98;75655.34;5016657;28;20033;-83
2022/05/30 10:49:58;;;;;;;4.55;0.77;;;;;;;-148.88;56.93;75661.44;5016859;28;20029;-84
2022/05/30 10:52:37;;;;;;;3.83;0.77;;;;;;;-148.88;55.91;75616.75;5017761;28;20025;-84
2022/05/30 10:55:12;;;;;;;1.85;0.57;;;;;;;-148.88;55.00;75598.47;5020673;28;20032;-85
2022/05/30 10:58:02;;;;;;;3.28;0.70;;;;;;;-148.88;57.28;75578.19;5038392;28;20026;-86
2022/05/30 11:00:42;;;;;;;3.70;0.73;;;;;;;-148.88;54.49;75574.13;5038314;28;20032;-85
2022/05/30 11:03:19;;;;;;;2.28;0.80;;;;;;;-148.88;52.62;75586.31;5036496;28;20029;-85
2022/05/30 11:06:09;;;;;;;2.90;0.90;;;;;;;-148.88;55.00;75586.31;5036358;28;20429;-86
2022/05/30 11:08:52;;;;;;;3.90;0.90;;;;;;;-148.88;54.65;75584.25;5018870;28;20029;-84
2022/05/30 11:11:40;;;;;;;4.90;1.05;;;;;;;-148.88;56.32;75559.91;5019057;28;20029;-85
2022/05/30 11:14:32;;;;;;;3.22;0.90;;;;;;;-148.88;54.22;75535.53;5036916;28;20036;-83
2022/05/30 11:17:23;;;;;;;2.28;0.70;;;;;;;-148.88;55.55;75543.66;5033470;28;20025;-85
2022/05/30 11:20:09;;;;;;;3.88;1.05;;;;;;;-148.88;55.95;75547.72;5032555;28;20017;-84
2022/05/30 11:22:45;;;;;;;5.03;0.98;;;;;;;-148.88;56.29;75539.59;5016236;28;20021;-84
2022/05/30 11:25:23;;;;;;;3.63;1.00;;;;;;;-148.88;56.79;75505.06;5017053;28;20512;-84
2022/05/30 11:28:23;;;;;;;2.47;0.93;;;;;;;-148.88;56.37;75460.38;5020037;28;20556;-84
2022/05/30 11:30:50;;;;;;;2.28;0.95;;;;;;;-148.88;56.04;75484.75;5021692;28;20021;-85
2022/05/30 11:33:44;;;;;;;4.32;1.25;;;;;;;-148.88;55.74;75527.41;5040600;28;20479;-85
2022/05/30 11:36:44;;;;;;;4.32;1.23;;;;;;;-148.88;57.84;75513.19;5023061;28;20394;-86
2022/05/30 11:39:15;;;;;;;4.00;1.27;;;;;;;-148.88;56.17;75511.16;5039728;28;20055;-85
2022/05/30 11:42:00;;;;;;;3.63;0.93;;;;;;;-148.88;53.41;75503.03;5040619;28;20053;-85
2022/05/30 11:44:51;;;;;;;3.58;0.93;;;;;;;-148.88;54.48;75517.25;5020735;28;20497;-86